createdAt,value
2018-08-31T00:02:10.261Z,70.20
2018-08-31T00:04:53.839Z,70.00
2018-08-31T00:07:34.711Z,69.80
2018-08-31T00:12:42.479Z,70.00
2018-08-31T00:15:11.332Z,71.10
2018-08-31T00:17:41.449Z,70.70
2018-08-31T00:20:11.260Z,71.40
2018-08-31T00:22:40.097Z,71.90
2018-08-31T00:26:22.607Z,71.30
2018-08-31T00:29:40.904Z,71.50
2018-08-31T00:34:27.166Z,71.10
2018-08-31T00:37:06.629Z,71.10
2018-08-31T00:39:45.280Z,70.90
2018-08-31T00:42:26.359Z,71.60
2018-08-31T00:45:05.080Z,71.40
2018-08-31T00:47:33.912Z,71.50
2018-08-31T00:50:02.736Z,71.40
2018-08-31T00:52:31.605Z,71.50
2018-08-31T00:55:00.584Z,71.10
2018-08-31T00:57:29.428Z,71.30
2018-08-31T00:59:58.308Z,71.10
2018-08-31T01:02:27.133Z,71.50
2018-08-31T01:04:56.008Z,71.30
2018-08-31T01:07:25.316Z,71.50
2018-08-31T01:09:54.144Z,71.40
2018-08-31T01:12:22.987Z,71.40
2018-08-31T01:14:51.872Z,71.10
2018-08-31T01:17:20.757Z,71.40
2018-08-31T01:19:49.660Z,71.20
2018-08-31T01:22:18.564Z,71.70
2018-08-31T01:24:47.402Z,71.70
2018-08-31T01:27:16.351Z,71.80
2018-08-31T01:29:45.401Z,72.20
2018-08-31T01:32:14.353Z,72.10
2018-08-31T01:34:43.781Z,72.60
2018-08-31T01:37:12.668Z,72.20
2018-08-31T01:39:41.532Z,72.20
2018-08-31T01:42:10.707Z,72.20
2018-08-31T01:44:39.722Z,72.10
2018-08-31T01:47:08.620Z,72.10
2018-08-31T01:49:37.728Z,72.00
2018-08-31T01:52:06.680Z,73.10
2018-08-31T01:54:35.525Z,73.30
2018-08-31T01:57:04.499Z,72.90
2018-08-31T01:59:33.389Z,73.50
2018-08-31T02:02:02.217Z,73.00
2018-08-31T02:04:31.044Z,73.20
2018-08-31T02:07:00.112Z,72.60
2018-08-31T02:09:29.040Z,73.00
2018-08-31T02:11:57.892Z,73.00
2018-08-31T02:14:26.800Z,72.60
2018-08-31T02:16:55.641Z,72.80
2018-08-31T02:19:24.584Z,72.80
2018-08-31T02:21:53.464Z,72.50
2018-08-31T02:24:22.296Z,73.00
2018-08-31T02:26:51.132Z,73.20
2018-08-31T02:29:20.027Z,73.30
2018-08-31T02:31:48.841Z,73.20
2018-08-31T02:34:17.666Z,73.10
2018-08-31T02:36:46.600Z,73.30
2018-08-31T02:39:15.563Z,73.30
2018-08-31T02:41:44.346Z,73.30
2018-08-31T02:44:13.339Z,73.00
2018-08-31T02:46:42.168Z,73.90
2018-08-31T02:49:11.170Z,74.00
2018-08-31T02:51:40.097Z,73.70
2018-08-31T02:54:08.916Z,73.60
2018-08-31T02:56:37.771Z,73.70
2018-08-31T02:59:06.708Z,73.90
2018-08-31T03:01:35.585Z,73.80
2018-08-31T03:04:04.427Z,73.90
2018-08-31T03:06:33.411Z,73.70
2018-08-31T03:09:02.320Z,74.10
2018-08-31T03:11:31.262Z,73.70
2018-08-31T03:14:00.282Z,73.50
2018-08-31T03:16:29.118Z,73.50
2018-08-31T03:18:57.996Z,73.60
2018-08-31T03:21:27.126Z,73.60
2018-08-31T03:23:55.836Z,73.80
2018-08-31T03:26:24.672Z,73.80
2018-08-31T03:28:53.540Z,73.80
2018-08-31T03:31:22.405Z,73.80
2018-08-31T03:33:51.289Z,73.80
2018-08-31T03:36:20.174Z,74.50
2018-08-31T03:38:49.032Z,74.50
2018-08-31T03:41:17.873Z,74.10
2018-08-31T03:43:46.787Z,74.00
2018-08-31T03:46:15.761Z,73.70
2018-08-31T03:48:44.581Z,73.70
2018-08-31T03:51:13.521Z,73.70
2018-08-31T03:53:42.408Z,73.90
2018-08-31T03:56:11.281Z,73.90
2018-08-31T03:58:40.208Z,73.90
2018-08-31T04:01:09.028Z,74.20
2018-08-31T04:03:37.922Z,74.70
2018-08-31T04:06:06.779Z,74.90
2018-08-31T04:08:35.660Z,74.90
2018-08-31T04:11:04.509Z,74.30
2018-08-31T04:13:33.399Z,73.90
2018-08-31T04:16:02.233Z,73.90
2018-08-31T04:18:31.061Z,73.50
2018-08-31T04:20:59.997Z,73.60
2018-08-31T04:23:28.893Z,73.30
2018-08-31T04:25:57.799Z,73.50
2018-08-31T04:28:26.712Z,73.20
2018-08-31T04:30:55.606Z,73.30
2018-08-31T04:33:24.457Z,73.20
2018-08-31T04:35:53.484Z,73.20
2018-08-31T04:38:22.302Z,73.20
2018-08-31T04:40:51.240Z,73.10
2018-08-31T04:43:20.276Z,73.00
2018-08-31T04:45:49.192Z,72.80
2018-08-31T04:48:18.036Z,72.80
2018-08-31T04:50:46.944Z,72.70
2018-08-31T04:53:15.823Z,72.60
2018-08-31T04:55:44.687Z,72.50
2018-08-31T04:58:13.588Z,72.30
2018-08-31T05:00:42.504Z,72.30
2018-08-31T05:03:11.403Z,72.20
2018-08-31T05:05:40.322Z,72.10
2018-08-31T05:08:09.195Z,72.10
2018-08-31T05:10:38.041Z,72.10
2018-08-31T05:13:07.517Z,72.00
2018-08-31T05:15:36.413Z,72.10
2018-08-31T05:18:05.411Z,72.20
2018-08-31T05:20:34.441Z,72.20
2018-08-31T05:23:03.894Z,72.00
2018-08-31T05:25:32.731Z,72.00
2018-08-31T05:28:01.668Z,72.00
2018-08-31T05:30:30.508Z,72.00
2018-08-31T05:32:59.494Z,71.60
2018-08-31T05:35:28.422Z,71.70
2018-08-31T05:37:57.313Z,71.60
2018-08-31T05:40:26.177Z,71.40
2018-08-31T05:42:55.048Z,71.30
2018-08-31T05:45:24.093Z,71.10
2018-08-31T05:47:53.020Z,71.10
2018-08-31T05:50:21.992Z,70.90
2018-08-31T05:52:50.809Z,70.90
2018-08-31T05:55:19.748Z,70.70
2018-08-31T05:57:48.612Z,70.80
2018-08-31T06:00:17.440Z,70.40
2018-08-31T06:02:46.348Z,70.30
2018-08-31T06:05:15.195Z,70.00
2018-08-31T06:07:44.088Z,70.10
2018-08-31T06:10:13.018Z,70.00
2018-08-31T06:12:41.876Z,70.00
2018-08-31T06:15:10.786Z,70.00
2018-08-31T06:17:39.712Z,70.10
2018-08-31T06:20:09.020Z,70.30
2018-08-31T06:22:37.944Z,71.10
2018-08-31T06:25:07.220Z,71.90
2018-08-31T06:27:36.143Z,71.50
2018-08-31T06:30:05.088Z,72.00
2018-08-31T06:32:34.008Z,72.30
2018-08-31T06:35:02.880Z,72.60
2018-08-31T06:37:31.785Z,72.50
2018-08-31T06:40:00.729Z,71.80
2018-08-31T06:42:30.139Z,70.90
2018-08-31T06:44:59.010Z,70.40
2018-08-31T06:47:27.933Z,70.40
2018-08-31T06:49:56.831Z,70.70
2018-08-31T06:52:25.736Z,70.70
2018-08-31T06:54:54.624Z,70.50
2018-08-31T06:57:23.512Z,70.20
2018-08-31T06:59:52.387Z,69.60
2018-08-31T07:02:21.386Z,69.60
2018-08-31T07:04:50.283Z,69.50
2018-08-31T07:07:19.174Z,69.60
2018-08-31T07:09:48.221Z,69.20
2018-08-31T07:12:17.188Z,69.00
2018-08-31T07:14:46.043Z,68.80
2018-08-31T07:17:14.928Z,68.80
2018-08-31T07:19:44.243Z,68.30
2018-08-31T07:22:13.171Z,68.00
2018-08-31T07:24:42.103Z,68.30
2018-08-31T07:27:11.005Z,68.00
2018-08-31T07:29:39.843Z,68.00
2018-08-31T07:32:15.470Z,67.60
2018-08-31T07:34:45.172Z,67.90
2018-08-31T07:37:14.016Z,67.70
2018-08-31T07:39:42.909Z,67.10
2018-08-31T07:42:12.135Z,66.90
2018-08-31T07:44:41.300Z,67.30
2018-08-31T07:47:10.212Z,67.30
2018-08-31T07:49:39.129Z,67.10
2018-08-31T07:52:08.026Z,67.30
2018-08-31T07:54:37.049Z,67.10
2018-08-31T07:57:06.288Z,66.70
2018-08-31T07:59:35.125Z,67.10
2018-08-31T08:02:04.151Z,67.20
2018-08-31T08:04:33.017Z,66.70
2018-08-31T08:07:01.856Z,67.60
2018-08-31T08:09:30.738Z,66.90
2018-08-31T08:11:59.893Z,67.30
2018-08-31T08:14:28.730Z,67.70
2018-08-31T08:16:57.652Z,67.00
2018-08-31T08:19:26.467Z,66.60
2018-08-31T08:21:55.407Z,66.50
2018-08-31T08:24:26.161Z,66.60
2018-08-31T08:26:55.288Z,66.40
2018-08-31T08:29:24.172Z,66.30
2018-08-31T08:31:53.186Z,66.10
2018-08-31T08:34:22.016Z,66.90
2018-08-31T08:36:50.849Z,67.10
2018-08-31T08:39:19.704Z,67.40
2018-08-31T08:41:48.560Z,67.10
2018-08-31T08:44:17.464Z,67.30
2018-08-31T08:46:46.393Z,66.60
2018-08-31T08:49:15.309Z,67.10
2018-08-31T08:51:44.144Z,66.40
2018-08-31T08:54:13.101Z,67.30
2018-08-31T08:56:41.975Z,66.20
2018-08-31T08:59:10.836Z,65.90
2018-08-31T09:01:39.775Z,65.50
2018-08-31T09:04:08.854Z,65.20
2018-08-31T09:06:37.884Z,65.00
2018-08-31T09:09:08.295Z,63.70
2018-08-31T09:11:37.152Z,64.10
2018-08-31T09:14:06.009Z,63.30
2018-08-31T09:16:35.097Z,63.60
2018-08-31T09:19:03.918Z,63.60
2018-08-31T09:21:32.739Z,63.00
2018-08-31T09:24:01.638Z,63.20
2018-08-31T09:26:30.492Z,62.90
2018-08-31T09:28:59.368Z,62.60
2018-08-31T09:31:28.320Z,63.50
2018-08-31T09:33:57.172Z,63.30
2018-08-31T09:36:26.028Z,62.00
2018-08-31T09:38:55.012Z,60.40
2018-08-31T09:41:23.868Z,61.80
2018-08-31T09:43:52.779Z,61.90
2018-08-31T09:46:21.655Z,61.40
2018-08-31T09:48:50.499Z,62.10
2018-08-31T09:51:19.375Z,61.60
2018-08-31T09:53:48.773Z,61.40
2018-08-31T09:56:17.608Z,61.60
2018-08-31T09:58:47.741Z,62.00
2018-08-31T10:01:21.836Z,61.10
2018-08-31T10:03:50.672Z,61.10
2018-08-31T10:06:19.583Z,61.50
2018-08-31T10:08:48.516Z,60.90
2018-08-31T10:11:17.407Z,61.10
2018-08-31T10:13:46.220Z,60.70
2018-08-31T10:16:15.164Z,60.40
2018-08-31T10:18:44.050Z,60.40
2018-08-31T10:21:12.973Z,59.90
2018-08-31T10:23:43.491Z,60.30
2018-08-31T10:26:12.474Z,59.40
2018-08-31T10:28:41.343Z,60.30
2018-08-31T10:31:10.230Z,60.70
2018-08-31T10:33:39.528Z,60.50
2018-08-31T10:36:08.437Z,60.50
2018-08-31T10:38:37.416Z,60.30
2018-08-31T10:41:06.953Z,60.40
2018-08-31T10:43:35.947Z,60.00
2018-08-31T10:46:04.779Z,59.80
2018-08-31T10:48:34.203Z,59.40
2018-08-31T10:51:03.168Z,59.50
2018-08-31T10:53:31.976Z,60.30
2018-08-31T10:56:00.796Z,60.10
2018-08-31T10:58:29.679Z,59.20
2018-08-31T11:00:58.533Z,59.10
2018-08-31T11:03:27.424Z,59.20
2018-08-31T11:05:56.291Z,59.60
2018-08-31T11:08:25.104Z,59.30
2018-08-31T11:10:53.962Z,59.20
2018-08-31T11:13:22.892Z,59.40
2018-08-31T11:15:51.764Z,59.30
2018-08-31T11:18:20.616Z,59.00
2018-08-31T11:20:49.467Z,58.80
2018-08-31T11:23:18.279Z,58.90
2018-08-31T11:25:47.164Z,59.00
2018-08-31T11:28:16.124Z,59.00
2018-08-31T11:30:44.948Z,59.10
2018-08-31T11:33:13.819Z,59.10
2018-08-31T11:35:43.713Z,59.20
2018-08-31T11:38:12.528Z,59.50
2018-08-31T11:40:41.612Z,59.50
2018-08-31T11:43:10.454Z,59.20
2018-08-31T11:45:39.920Z,59.20
2018-08-31T11:48:09.734Z,59.30
2018-08-31T11:50:38.680Z,59.30
2018-08-31T11:53:07.820Z,58.50
2018-08-31T11:55:36.796Z,58.20
2018-08-31T11:58:06.152Z,58.60
2018-08-31T12:00:34.960Z,58.90
2018-08-31T12:03:03.908Z,59.20
2018-08-31T12:05:32.780Z,58.60
2018-08-31T12:08:01.648Z,58.60
2018-08-31T12:10:30.503Z,58.30
2018-08-31T12:12:59.343Z,58.40
2018-08-31T12:15:28.164Z,58.30
2018-08-31T12:17:57.012Z,58.30
2018-08-31T12:20:25.817Z,58.30
2018-08-31T12:22:55.073Z,58.30
2018-08-31T12:25:23.921Z,58.30
2018-08-31T12:27:52.725Z,58.30
2018-08-31T12:30:21.592Z,58.50
2018-08-31T12:32:50.459Z,58.90
2018-08-31T12:35:19.308Z,59.60
2018-08-31T12:37:48.143Z,58.90
2018-08-31T12:40:18.140Z,58.60
2018-08-31T12:42:46.937Z,58.40
2018-08-31T12:45:15.748Z,58.40
2018-08-31T12:47:44.743Z,58.50
2018-08-31T12:50:13.653Z,58.40
2018-08-31T12:52:42.484Z,59.10
2018-08-31T12:55:11.392Z,58.40
2018-08-31T12:57:40.291Z,58.50
2018-08-31T13:00:09.165Z,58.70
2018-08-31T13:02:38.020Z,58.50
2018-08-31T13:05:07.432Z,58.20
2018-08-31T13:07:36.292Z,57.70
2018-08-31T13:10:05.378Z,57.50
2018-08-31T13:12:34.231Z,57.30
2018-08-31T13:15:03.056Z,57.20
2018-08-31T13:17:32.066Z,57.20
2018-08-31T13:20:00.931Z,57.20
2018-08-31T13:22:29.875Z,57.50
2018-08-31T13:24:58.728Z,57.80
2018-08-31T13:27:27.719Z,58.20
2018-08-31T13:29:56.644Z,57.60
2018-08-31T13:32:25.476Z,58.00
2018-08-31T13:34:54.332Z,58.00
2018-08-31T13:37:23.299Z,58.00
2018-08-31T13:39:52.198Z,57.90
2018-08-31T13:42:21.100Z,57.60
2018-08-31T13:44:50.475Z,57.60
2018-08-31T13:47:19.305Z,57.20
2018-08-31T13:49:48.119Z,57.20
2018-08-31T13:52:17.928Z,57.30
2018-08-31T13:54:46.803Z,57.50
2018-08-31T13:57:15.682Z,57.50
2018-08-31T13:59:44.928Z,57.50
2018-08-31T14:02:13.771Z,57.40
2018-08-31T14:04:42.627Z,57.60
2018-08-31T14:07:12.275Z,57.60
2018-08-31T14:09:41.144Z,57.10
2018-08-31T14:12:10.005Z,57.50
2018-08-31T14:14:38.926Z,57.70
2018-08-31T14:17:07.782Z,58.00
2018-08-31T14:19:36.669Z,57.50
2018-08-31T14:22:05.584Z,57.50
2018-08-31T14:24:34.452Z,57.10
2018-08-31T14:27:03.307Z,57.70
2018-08-31T14:29:32.222Z,57.70
2018-08-31T14:32:01.607Z,57.70
2018-08-31T14:34:30.416Z,57.60
2018-08-31T14:36:59.275Z,57.50
2018-08-31T14:39:28.084Z,57.30
2018-08-31T14:41:56.994Z,57.60
2018-08-31T14:44:25.927Z,57.30
2018-08-31T14:46:54.776Z,57.10
2018-08-31T14:49:23.690Z,57.30
2018-08-31T14:51:59.036Z,57.60
2018-08-31T14:54:28.057Z,57.60
2018-08-31T14:56:56.960Z,57.60
2018-08-31T14:59:25.771Z,58.00
2018-08-31T15:01:54.649Z,58.30
2018-08-31T15:04:23.583Z,59.40
2018-08-31T15:06:52.522Z,59.20
2018-08-31T15:09:21.468Z,60.30
2018-08-31T15:11:50.417Z,59.60
2018-08-31T15:14:19.315Z,59.60
2018-08-31T15:16:48.140Z,59.20
2018-08-31T15:19:17.142Z,59.20
2018-08-31T15:21:45.974Z,59.20
2018-08-31T15:24:14.980Z,59.00
2018-08-31T15:26:43.833Z,59.20
2018-08-31T15:29:12.657Z,58.90
2018-08-31T15:31:41.541Z,59.10
2018-08-31T15:34:10.409Z,58.80
2018-08-31T15:36:39.256Z,59.30
2018-08-31T15:39:09.540Z,59.30
2018-08-31T15:41:38.439Z,59.30
2018-08-31T15:44:07.453Z,59.00
2018-08-31T15:46:36.372Z,58.90
2018-08-31T15:49:05.373Z,59.00
2018-08-31T15:51:34.305Z,59.00
2018-08-31T15:54:03.107Z,59.20
2018-08-31T15:56:32.080Z,59.80
2018-08-31T15:59:00.892Z,60.50
2018-08-31T16:01:31.028Z,61.50
2018-08-31T16:03:59.881Z,62.20
2018-08-31T16:06:28.914Z,62.60
2018-08-31T16:08:57.784Z,62.70
2018-08-31T16:11:26.669Z,62.80
2018-08-31T16:13:55.537Z,63.70
2018-08-31T16:16:24.531Z,62.80
2018-08-31T16:18:53.367Z,62.70
2018-08-31T16:21:22.225Z,62.10
2018-08-31T16:23:51.158Z,63.00
2018-08-31T16:26:20.072Z,62.00
2018-08-31T16:28:50.399Z,61.30
2018-08-31T16:31:19.251Z,61.30
2018-08-31T16:33:48.067Z,61.00
2018-08-31T16:36:16.935Z,61.10
2018-08-31T16:38:45.783Z,61.10
2018-08-31T16:41:14.640Z,62.80
2018-08-31T16:43:43.462Z,61.80
2018-08-31T16:46:12.321Z,61.50
2018-08-31T16:48:41.170Z,63.50
2018-08-31T16:51:09.993Z,63.90
2018-08-31T16:53:38.933Z,63.50
2018-08-31T16:56:08.059Z,62.80
2018-08-31T16:58:36.904Z,63.10
2018-08-31T17:01:06.234Z,62.90
2018-08-31T17:03:35.044Z,63.50
2018-08-31T17:06:03.912Z,62.80
2018-08-31T17:08:32.763Z,62.50
2018-08-31T17:11:01.605Z,62.50
2018-08-31T17:13:30.435Z,62.10
2018-08-31T17:15:59.799Z,62.20
2018-08-31T17:18:28.604Z,61.60
2018-08-31T17:20:57.457Z,61.80
2018-08-31T17:23:26.447Z,61.60
2018-08-31T17:25:55.257Z,61.40
2018-08-31T17:28:29.277Z,61.80
2018-08-31T17:31:03.258Z,60.70
2018-08-31T17:33:37.448Z,60.80
2018-08-31T17:36:11.460Z,61.60
2018-08-31T17:38:40.316Z,61.50
2018-08-31T17:41:09.162Z,62.00
2018-08-31T17:43:38.004Z,62.00
2018-08-31T17:46:07.024Z,62.00
2018-08-31T17:48:35.828Z,61.00
2018-08-31T17:51:04.683Z,62.00
2018-08-31T17:53:33.539Z,61.30
2018-08-31T17:56:02.361Z,61.80
2018-08-31T17:58:31.219Z,61.60
2018-08-31T18:01:00.161Z,62.00
2018-08-31T18:03:28.965Z,61.80
2018-08-31T18:05:57.800Z,62.20
2018-08-31T18:08:27.009Z,61.80
2018-08-31T18:10:55.991Z,61.60
2018-08-31T18:13:24.879Z,61.10
2018-08-31T18:15:53.811Z,61.30
2018-08-31T18:18:22.650Z,61.10
2018-08-31T18:20:51.651Z,61.30
2018-08-31T18:23:21.132Z,59.80
2018-08-31T18:25:50.089Z,60.50
2018-08-31T18:28:18.952Z,61.30
2018-08-31T18:30:47.761Z,62.00
2018-08-31T18:33:16.652Z,63.00
2018-08-31T18:35:45.480Z,63.70
2018-08-31T18:38:14.287Z,64.70
2018-08-31T18:40:43.189Z,64.90
2018-08-31T18:43:12.059Z,65.10
2018-08-31T18:45:40.900Z,65.40
2018-08-31T18:48:09.984Z,65.80
2018-08-31T18:50:38.808Z,65.60
2018-08-31T18:53:07.971Z,66.40
2018-08-31T18:55:36.826Z,66.60
2018-08-31T18:58:05.642Z,66.90
2018-08-31T19:00:34.579Z,66.60
2018-08-31T19:03:03.549Z,66.90
2018-08-31T19:05:32.386Z,66.90
2018-08-31T19:08:01.232Z,67.20
2018-08-31T19:10:30.152Z,67.40
2018-08-31T19:12:59.084Z,67.50
2018-08-31T19:15:29.091Z,67.90
2018-08-31T19:17:57.906Z,67.90
2018-08-31T19:20:26.844Z,68.40
2018-08-31T19:22:55.672Z,68.80
2018-08-31T19:25:24.585Z,68.40
2018-08-31T19:27:53.397Z,69.00
2018-08-31T19:30:22.224Z,69.50
2018-08-31T19:32:51.239Z,69.40
2018-08-31T19:35:20.128Z,69.90
2018-08-31T19:37:50.615Z,69.20
2018-08-31T19:40:19.576Z,70.10
2018-08-31T19:42:48.538Z,72.00
2018-08-31T19:45:17.688Z,70.30
2018-08-31T19:47:46.592Z,71.10
2018-08-31T19:50:15.749Z,70.50
2018-08-31T19:52:44.656Z,70.70
2018-08-31T19:55:13.762Z,70.00
2018-08-31T19:57:51.837Z,70.40
2018-08-31T20:00:20.763Z,70.60
2018-08-31T20:02:49.600Z,70.00
2018-08-31T20:05:31.023Z,70.00
2018-08-31T20:07:59.905Z,70.30
2018-08-31T20:10:28.847Z,70.80
2018-08-31T20:12:57.732Z,70.80
2018-08-31T20:15:26.597Z,71.00
2018-08-31T20:17:55.406Z,71.60
2018-08-31T20:20:24.272Z,71.70
2018-08-31T20:22:54.336Z,71.60
2018-08-31T20:25:23.176Z,72.80
2018-08-31T20:27:54.917Z,71.70
2018-08-31T20:30:23.716Z,72.50
2018-08-31T20:32:52.572Z,72.60
2018-08-31T20:35:21.459Z,72.80
2018-08-31T20:37:50.296Z,72.70
2018-08-31T20:40:19.201Z,73.10
2018-08-31T20:42:48.117Z,73.10
2018-08-31T20:45:16.946Z,72.80
2018-08-31T20:47:48.868Z,72.20
2018-08-31T20:50:17.779Z,72.00
2018-08-31T20:52:46.801Z,72.60
2018-08-31T20:55:17.071Z,71.70
2018-08-31T20:57:45.878Z,71.70
2018-08-31T21:00:14.662Z,71.80
2018-08-31T21:02:43.607Z,72.60
2018-08-31T21:05:12.399Z,71.60
2018-08-31T21:07:41.208Z,72.20
2018-08-31T21:10:10.051Z,71.60
2018-08-31T21:12:38.864Z,71.60
2018-08-31T21:15:11.529Z,71.60
2018-08-31T21:17:40.457Z,71.90
2018-08-31T21:20:09.299Z,71.80
2018-08-31T21:22:38.112Z,71.60
2018-08-31T21:25:07.007Z,72.50
2018-08-31T21:27:35.804Z,72.60
2018-08-31T21:30:04.629Z,72.60
2018-08-31T21:32:33.585Z,72.00
2018-08-31T21:35:02.396Z,72.20
2018-08-31T21:37:31.205Z,72.20
2018-08-31T21:40:00.072Z,71.90
2018-08-31T21:42:28.931Z,72.80
2018-08-31T21:44:57.782Z,72.90
2018-08-31T21:47:26.711Z,73.00
2018-08-31T21:49:55.522Z,73.00
2018-08-31T21:52:24.399Z,73.30
2018-08-31T21:54:53.353Z,73.70
2018-08-31T21:57:23.181Z,73.50
2018-08-31T21:59:51.976Z,73.30
2018-08-31T22:02:20.876Z,74.90
2018-08-31T22:04:49.711Z,74.30
2018-08-31T22:07:18.679Z,74.10
2018-08-31T22:09:47.479Z,74.50
2018-08-31T22:12:16.283Z,74.50
2018-08-31T22:14:45.140Z,74.70
2018-08-31T22:17:13.963Z,74.40
2018-08-31T22:19:42.801Z,74.10
2018-08-31T22:22:11.796Z,74.20
2018-08-31T22:24:40.588Z,74.30
2018-08-31T22:27:09.390Z,74.20
2018-08-31T22:29:38.229Z,74.40
2018-08-31T22:32:07.023Z,74.50
2018-08-31T22:34:36.066Z,75.40
2018-08-31T22:37:04.764Z,74.70
2018-08-31T22:39:33.572Z,73.60
2018-08-31T22:42:02.432Z,74.70
2018-08-31T22:44:35.743Z,74.70
2018-08-31T22:47:05.442Z,74.50
2018-08-31T22:49:34.949Z,74.50
2018-08-31T22:52:04.119Z,73.80
2018-08-31T22:54:32.980Z,74.30
2018-08-31T22:57:01.900Z,73.90
2018-08-31T22:59:30.955Z,74.00
2018-08-31T23:01:59.746Z,74.40
2018-08-31T23:04:28.574Z,74.70
2018-08-31T23:06:57.435Z,74.90
2018-08-31T23:09:26.244Z,75.00
2018-08-31T23:11:55.038Z,74.80
2018-08-31T23:14:23.951Z,74.90
2018-08-31T23:16:52.780Z,74.40
2018-08-31T23:19:21.928Z,74.50
2018-08-31T23:21:50.835Z,74.50
2018-08-31T23:24:19.650Z,74.00
2018-08-31T23:26:48.453Z,74.50
2018-08-31T23:29:17.372Z,73.90
2018-08-31T23:31:46.199Z,74.70
2018-08-31T23:34:15.021Z,74.50
2018-08-31T23:36:43.942Z,74.70
2018-08-31T23:39:12.742Z,74.80
2018-08-31T23:41:41.585Z,74.50
2018-08-31T23:44:10.551Z,75.40
2018-08-31T23:46:39.408Z,74.60
2018-08-31T23:49:08.309Z,76.20
2018-08-31T23:51:37.184Z,74.30
2018-08-31T23:54:06.028Z,74.70
2018-08-31T23:56:34.880Z,75.00
2018-08-31T23:59:03.767Z,75.10
